ADDS METAR Data INFO
IDs: Format: Raw Decoded Include TAF

Data at: 1526 UTC 18 Jun 2018

KMYF 181453Z 34004KT 10SM OVC035 18/08 A3001 RMK AO2 SLP159 T01830083 52013
KMYF 181353Z 31005KT 10SM OVC035 17/09 A3000 RMK AO2 SLP155 T01720089
KMYF 181253Z 00000KT 10SM OVC035 17/11 A2998 RMK AO2 SLP149 T01670106
KMYF 181153Z AUTO 35004KT 10SM BKN035 17/12 A2997 RMK AO2 SLP146 T01670117 10172 20167 55002
KMYF 181053Z AUTO 10003KT 10SM OVC034 17/11 A2997 RMK AO2 SLP145 T01720106
KMYF 181002Z AUTO 34003KT 10SM FEW023 OVC032 17/12 A2997 RMK AO2 T01720117
KMYF 180953Z AUTO 33004KT 10SM FEW023 BKN028 OVC034 17/12 A2997 RMK AO2 SLP144 T01720117
KMYF 180926Z AUTO 00000KT 10SM BKN025 OVC031 17/12 A2997 RMK AO2 T01720117
KMYF 180853Z AUTO 00000KT 10SM OVC031 17/12 A2998 RMK AO2 SLP148 T01670122 58006
KMYF 180753Z AUTO 34003KT 10SM OVC034 17/12 A2999 RMK AO2 SLP150 T01670122 402060161
KMYF 180653Z AUTO 33005KT 10SM OVC034 17/12 A2999 RMK AO2 SLP153 T01670122
KMYF 180553Z AUTO 30005KT 10SM BKN034 17/12 A3000 RMK AO2 SLP155 T01670117 10194 20167 51009
KMYF 180453Z 27006KT 10SM FEW032 17/12 A2999 RMK AO2 SLP154 T01670117
KMYF 180353Z 25007KT 10SM OVC030 17/12 A2998 RMK AO2 SLP150 T01670117
KMYF 180253Z 25007KT 10SM BKN030 17/12 A2997 RMK AO2 SLP146 T01720117 56001
KMYF 180153Z 24008KT 10SM BKN029 18/11 A2997 RMK AO2 SLP146 T01780106
KMYF 180135Z 25007KT 10SM BKN029 18/11 A2997 RMK AO2 T01830106
KMYF 180053Z 29009KT 10SM BKN033 19/10 A2997 RMK AO2 SLP144 T01890100
KMYF 172353Z 24007KT 10SM BKN037 19/10 A2998 RMK AO2 SLP147 T01890100 10206 20172 50001
KMYF 172253Z AUTO 27012KT 10SM OVC037 20/10 A2998 RMK AO2 SLP147 T02000100
KMYF 172153Z AUTO VRB06KT 10SM BKN034 19/09 A2997 RMK AO2 SLP146 T01940094
KMYF 172053Z 22010KT 10SM BKN037 20/09 A2997 RMK AO2 SLP146 T02000094 58000
KMYF 171953Z VRB06KT 10SM BKN038 19/09 A2997 RMK AO2 SLP147 T01890094
KMYF 171853Z 23009KT 10SM OVC037 18/09 A2997 RMK AO2 SLP147 T01830094
KMYF 171753Z 23006KT 10SM FEW027 OVC035 18/09 A2997 RMK AO2 SLP147 T01780094 10178 20161 53007
KMYF 171653Z 24005KT 10SM FEW028 OVC036 17/10 A2996 RMK AO2 SLP144 T01720100
KMYF 171553Z 19003KT 10SM OVC032 17/09 A2996 RMK AO2 SLP143 T01720089
KMYF 171453Z 24004KT 10SM OVC036 17/09 A2995 RMK AO2 SLP141 T01670094 53016
KMYF 171353Z 26004KT 10SM OVC036 16/09 A2993 RMK AO2 SLP134 T01610094
KMYF 171253Z 23005KT 10SM OVC034 16/09 A2992 RMK AO2 SLP129 T01610089
KMYF 171153Z AUTO 24005KT 10SM OVC032 16/09 A2991 RMK AO2 SLP124 T01610094 10167 20161 53001
KMYF 171053Z AUTO 24004KT 10SM OVC029 16/09 A2990 RMK AO2 SLP122 T01610089
KMYF 170953Z AUTO 23006KT 10SM OVC026 16/09 A2989 RMK AO2 SLP120 T01610089
KMYF 170853Z AUTO 22006KT 10SM OVC028 16/09 A2990 RMK AO2 SLP123 T01610094 55000
KMYF 170753Z AUTO 24005KT 10SM OVC028 16/09 A2990 RMK AO2 SLP123 T01610094 401830161
KMYF 170653Z AUTO 24006KT 10SM OVC033 16/09 A2989 RMK AO2 SLP120 T01610094
KMYF 170615Z AUTO 22006KT 10SM OVC031 16/09 A2990 RMK AO2 T01610094
KMYF 170553Z AUTO 22006KT 10SM OVC028 16/10 A2990 RMK AO2 SLP123 T01610100 10178 20161 51009
KMYF 170453Z AUTO 20004KT 10SM FEW022 OVC028 17/11 A2990 RMK AO2 SLP121 T01670106
KMYF 170353Z 20005KT 10SM OVC028 17/11 A2988 RMK AO2 SLP116 T01670106